Time;durP1;ratioP1;P1;durP2;ratioP2;P2;SDS_P1;SDS_P2;PMS_P1;PMS_P2;Temp;Humidity;BMP_temperature;BMP_pressure;BME280_temperature;BME280_humidity;BME280_pressure;Samples;Min_cycle;Max_cycle;Signal;HPM_P1;HPM_P2
2022/09/20 00:00:45;;;;;;;1.23;1.02;;;12.90;99.90;;;;;;5108314;28;20188;-64
2022/09/20 00:03:13;;;;;;;2.20;0.80;;;12.90;99.90;;;;;;5079943;28;20184;-64
2022/09/20 00:05:41;;;;;;;1.20;0.95;;;12.90;99.90;;;;;;5092741;28;20566;-64
2022/09/20 00:08:11;;;;;;;4.43;1.20;;;12.80;99.90;;;;;;5112151;28;20653;-64
2022/09/20 00:10:38;;;;;;;0.80;0.80;;;12.80;99.90;;;;;;5099869;28;20199;-64
2022/09/20 00:13:06;;;;;;;1.00;1.00;;;12.70;99.90;;;;;;5092127;28;20195;-64
2022/09/20 00:15:33;;;;;;;1.67;1.00;;;12.70;99.90;;;;;;5095795;28;20629;-64
2022/09/20 00:17:59;;;;;;;6.93;1.40;;;12.70;99.90;;;;;;5108431;28;20179;-64
2022/09/20 00:20:25;;;;;;;1.00;0.88;;;12.60;99.90;;;;;;5106075;28;20177;-64
2022/09/20 00:22:51;;;;;;;1.10;1.08;;;12.60;99.90;;;;;;5075331;28;20608;-64
2022/09/20 00:25:18;;;;;;;9.40;1.95;;;12.50;99.90;;;;;;5094433;28;20195;-65
2022/09/20 00:27:45;;;;;;;2.28;1.02;;;12.40;99.90;;;;;;5123243;27;20262;-65
2022/09/20 00:30:12;;;;;;;2.30;1.27;;;12.40;99.90;;;;;;5059424;28;20187;-65
2022/09/20 00:32:38;;;;;;;1.20;1.00;;;12.40;99.90;;;;;;5102380;28;20230;-64
2022/09/20 00:35:09;;;;;;;1.40;1.25;;;12.50;99.90;;;;;;5098681;28;20184;-64
2022/09/20 00:37:37;;;;;;;0.80;0.80;;;12.40;99.90;;;;;;5094629;28;20188;-64
2022/09/20 00:40:05;;;;;;;1.15;0.98;;;12.50;99.90;;;;;;5100893;28;20242;-64
2022/09/20 00:42:31;;;;;;;1.70;1.30;;;12.50;99.90;;;;;;5106415;28;20216;-64
2022/09/20 00:45:02;;;;;;;1.73;0.90;;;12.50;99.90;;;;;;5075408;28;20194;-64
2022/09/20 00:47:31;;;;;;;1.58;1.25;;;12.50;99.90;;;;;;5085433;28;20213;-64
2022/09/20 00:50:23;;;;;;;1.00;0.90;;;12.50;99.90;;;;;;5106744;28;20184;-64
2022/09/20 00:52:55;;;;;;;1.85;1.73;;;12.40;99.90;;;;;;5082753;28;20221;-64
2022/09/20 00:55:21;;;;;;;1.48;1.38;;;12.40;99.90;;;;;;5109711;28;20233;-64
2022/09/20 00:57:47;;;;;;;1.88;1.17;;;12.40;99.90;;;;;;5077235;28;20591;-64
2022/09/20 01:00:14;;;;;;;1.15;1.05;;;12.40;99.90;;;;;;5096217;28;20180;-64
2022/09/20 01:02:50;;;;;;;2.35;1.25;;;12.50;99.90;;;;;;5090922;27;20287;-64
2022/09/20 01:05:17;;;;;;;1.70;1.00;;;12.40;99.90;;;;;;5119688;27;20177;-64
2022/09/20 01:07:46;;;;;;;2.10;1.25;;;12.50;99.90;;;;;;5095624;28;20184;-64
2022/09/20 01:10:12;;;;;;;0.85;0.85;;;12.40;99.90;;;;;;5105557;28;20557;-64
2022/09/20 01:12:39;;;;;;;1.98;1.20;;;12.40;99.90;;;;;;5068315;28;20192;-65
2022/09/20 01:15:08;;;;;;;2.72;1.17;;;12.40;99.90;;;;;;5078980;28;20672;-64
2022/09/20 01:17:37;;;;;;;4.60;1.35;;;12.40;99.90;;;;;;5105152;28;20172;-65
2022/09/20 01:20:12;;;;;;;6.13;1.45;;;12.40;99.90;;;;;;5097395;28;20179;-65
2022/09/20 01:23:05;;;;;;;1.17;1.08;;;12.40;99.90;;;;;;5116401;27;20179;-64
2022/09/20 01:25:30;;;;;;;2.35;1.40;;;12.30;99.90;;;;;;5078096;28;20188;-64
2022/09/20 01:27:56;;;;;;;1.45;1.40;;;12.30;99.90;;;;;;5087409;28;20179;-64
2022/09/20 01:30:38;;;;;;;3.17;1.63;;;12.30;99.90;;;;;;5080282;27;20211;-64
2022/09/20 01:33:06;;;;;;;0.85;0.85;;;12.40;99.90;;;;;;5097956;28;20196;-64
2022/09/20 01:35:34;;;;;;;7.50;1.95;;;12.40;99.90;;;;;;5098693;28;20225;-64
2022/09/20 01:38:26;;;;;;;4.35;1.23;;;12.50;99.90;;;;;;5112971;28;20256;-66
2022/09/20 01:40:54;;;;;;;1.63;1.33;;;12.50;99.90;;;;;;5108135;28;20180;-66
2022/09/20 01:44:08;;;;;;;1.98;1.20;;;12.50;99.90;;;;;;5082010;28;20187;-64
2022/09/20 01:46:35;;;;;;;2.22;1.15;;;12.60;99.90;;;;;;5082172;28;20601;-64
2022/09/20 01:49:20;;;;;;;2.85;1.90;;;12.60;99.90;;;;;;5105599;27;20179;-64
2022/09/20 01:52:06;;;;;;;2.00;1.40;;;12.60;99.90;;;;;;5114887;27;20203;-64
2022/09/20 01:54:56;;;;;;;2.13;1.77;;;12.50;99.90;;;;;;5095398;28;20184;-64
2022/09/20 01:57:22;;;;;;;4.10;1.50;;;12.50;99.90;;;;;;5103446;27;20203;-64
2022/09/20 02:00:12;;;;;;;1.30;1.20;;;12.60;99.90;;;;;;5100510;28;20219;-65
2022/09/20 02:02:59;;;;;;;4.03;1.92;;;12.70;99.90;;;;;;5080625;28;20271;-64
2022/09/20 02:05:57;;;;;;;1.83;1.30;;;12.70;99.90;;;;;;5096742;27;20582;-64
2022/09/20 02:08:47;;;;;;;5.13;1.70;;;12.70;99.90;;;;;;5038809;28;20191;-64
2022/09/20 02:11:33;;;;;;;4.07;2.67;;;12.80;99.90;;;;;;5105940;28;20264;-64
2022/09/20 02:14:53;;;;;;;1.25;1.13;;;12.90;99.90;;;;;;5115230;28;20182;-64
2022/09/20 02:17:22;;;;;;;1.42;1.33;;;12.90;99.90;;;;;;4995788;28;20898;-64
2022/09/20 02:20:02;;;;;;;5.18;1.80;;;12.90;99.90;;;;;;5070838;28;20556;-64
2022/09/20 02:22:40;;;;;;;2.15;1.55;;;12.90;99.90;;;;;;5098918;27;20232;-64
2022/09/20 02:25:21;;;;;;;2.70;2.53;;;13.00;99.90;;;;;;5086043;27;20203;-65
2022/09/20 02:28:44;;;;;;;1.70;1.60;;;13.00;99.90;;;;;;5097623;28;20182;-65
2022/09/20 02:31:31;;;;;;;5.70;1.90;;;13.10;99.90;;;;;;5031734;28;20631;-65
2022/09/20 02:34:09;;;;;;;4.22;2.03;;;13.20;99.90;;;;;;5015568;28;20333;-64
2022/09/20 02:36:57;;;;;;;1.55;1.45;;;13.20;99.90;;;;;;5090736;28;20192;-64
2022/09/20 02:39:34;;;;;;;5.72;2.42;;;13.20;99.90;;;;;;5098386;27;20267;-65
2022/09/20 02:42:16;;;;;;;7.57;2.28;;;13.20;99.90;;;;;;5110530;27;20184;-64
2022/09/20 02:45:02;;;;;;;6.30;2.40;;;13.10;99.90;;;;;;5096954;28;20181;-65
2022/09/20 02:47:38;;;;;;;2.58;2.22;;;13.10;99.90;;;;;;5093673;28;20172;-64
2022/09/20 02:50:30;;;;;;;2.58;1.90;;;13.20;99.90;;;;;;5083287;28;20677;-64
2022/09/20 02:53:15;;;;;;;2.90;2.58;;;13.30;99.90;;;;;;5110470;27;20197;-64
2022/09/20 02:56:20;;;;;;;2.97;2.17;;;13.30;99.90;;;;;;5098472;28;20188;-64
2022/09/20 02:59:05;;;;;;;2.42;2.08;;;13.30;99.90;;;;;;5078201;27;20200;-64
2022/09/20 03:01:52;;;;;;;1.70;1.60;;;13.30;99.90;;;;;;5095322;28;20590;-65
2022/09/20 03:04:30;;;;;;;2.72;2.15;;;13.20;99.90;;;;;;5105528;28;20590;-65
2022/09/20 03:07:12;;;;;;;20.25;2.25;;;13.10;99.90;;;;;;5102182;28;20194;-64
2022/09/20 03:09:54;;;;;;;2.40;2.17;;;13.30;99.90;;;;;;5114605;28;20211;-64
2022/09/20 03:12:47;;;;;;;5.38;2.20;;;13.30;99.90;;;;;;5102548;27;20203;-65
2022/09/20 03:15:51;;;;;;;7.43;2.40;;;13.30;99.90;;;;;;5114186;27;20547;-65
2022/09/20 03:18:28;;;;;;;1.60;1.50;;;13.40;99.90;;;;;;5086187;28;20249;-64
2022/09/20 03:21:12;;;;;;;2.65;1.73;;;13.40;99.90;;;;;;5103500;27;20175;-64
2022/09/20 03:24:19;;;;;;;2.95;2.22;;;13.30;99.90;;;;;;5109312;28;20230;-64
2022/09/20 03:26:54;;;;;;;2.38;1.80;;;13.30;99.90;;;;;;5048868;27;20307;-65
2022/09/20 03:29:49;;;;;;;2.97;2.17;;;13.20;99.90;;;;;;5075581;28;20173;-64
2022/09/20 03:32:59;;;;;;;3.70;1.77;;;13.30;99.90;;;;;;5108894;28;20596;-66
2022/09/20 03:35:55;;;;;;;4.97;2.50;;;13.30;99.90;;;;;;5072881;28;20283;-65
2022/09/20 03:38:52;;;;;;;2.83;2.10;;;13.20;99.90;;;;;;5104724;28;20214;-65
2022/09/20 03:41:24;;;;;;;2.50;2.30;;;13.20;99.90;;;;;;5067233;28;20629;-65
2022/09/20 03:43:52;;;;;;;5.43;2.22;;;13.40;99.90;;;;;;5098464;27;20347;-64
2022/09/20 03:46:29;;;;;;;2.72;2.10;;;13.30;99.90;;;;;;5113464;27;20180;-65
2022/09/20 03:48:59;;;;;;;3.75;2.10;;;13.30;99.90;;;;;;5092103;28;20188;-64
2022/09/20 03:51:50;;;;;;;5.63;2.90;;;13.40;99.90;;;;;;5094537;28;20201;-65
2022/09/20 03:54:46;;;;;;;9.15;3.05;;;13.40;99.90;;;;;;5097815;27;20226;-64
2022/09/20 03:57:33;;;;;;;6.90;2.55;;;13.30;99.90;;;;;;5105119;27;20195;-64
2022/09/20 04:00:02;;;;;;;4.32;2.35;;;13.20;99.90;;;;;;5102439;28;20529;-64
2022/09/20 04:03:09;;;;;;;3.42;1.77;;;13.20;99.90;;;;;;5106609;28;20180;-64
2022/09/20 04:05:53;;;;;;;3.05;2.58;;;13.20;99.90;;;;;;5109571;27;20271;-65
2022/09/20 04:08:25;;;;;;;4.07;2.08;;;13.10;99.90;;;;;;5093035;28;20184;-64
2022/09/20 04:10:50;;;;;;;2.88;2.38;;;13.20;99.90;;;;;;5113694;27;20620;-64
2022/09/20 04:13:36;;;;;;;4.95;2.10;;;13.00;99.90;;;;;;5112796;27;20257;-64
2022/09/20 04:16:26;;;;;;;3.70;2.10;;;12.80;99.90;;;;;;5111061;28;20180;-64
2022/09/20 04:19:15;;;;;;;3.65;1.63;;;12.60;99.90;;;;;;5114280;27;20172;-64
2022/09/20 04:21:58;;;;;;;3.65;1.77;;;12.40;99.90;;;;;;5107028;28;20259;-64
2022/09/20 04:24:34;;;;;;;4.40;1.80;;;12.30;99.90;;;;;;5111307;28;20179;-64
2022/09/20 04:27:08;;;;;;;5.35;2.13;;;12.30;99.90;;;;;;5095236;28;20240;-64
2022/09/20 04:29:54;;;;;;;4.90;2.17;;;12.20;99.90;;;;;;5078579;28;20200;-64
2022/09/20 04:32:41;;;;;;;4.60;2.33;;;12.20;99.90;;;;;;5095798;28;20216;-64
2022/09/20 04:38:04;;;;;;;4.30;2.63;;;12.30;99.90;;;;;;5100309;28;20183;-65
2022/09/20 04:40:32;;;;;;;8.95;2.45;;;12.40;99.90;;;;;;5099577;28;20180;-64
2022/09/20 04:43:30;;;;;;;2.00;1.70;;;12.20;99.90;;;;;;5075870;28;20187;-65
2022/09/20 04:46:13;;;;;;;3.53;2.20;;;12.20;99.90;;;;;;5109535;28;20191;-64
2022/09/20 04:48:55;;;;;;;2.60;1.98;;;12.10;99.90;;;;;;5102746;28;20637;-64
2022/09/20 04:51:39;;;;;;;3.90;2.63;;;12.00;99.90;;;;;;5115080;28;20200;-64
2022/09/20 04:54:43;;;;;;;3.30;2.25;;;11.90;99.90;;;;;;5102259;28;20544;-64
2022/09/20 04:57:43;;;;;;;2.70;2.45;;;11.90;99.90;;;;;;5064164;28;20192;-64
2022/09/20 05:00:14;;;;;;;5.88;2.97;;;11.80;99.90;;;;;;5110103;28;20398;-64
2022/09/20 05:02:43;;;;;;;2.83;2.60;;;11.80;99.90;;;;;;5075718;28;20184;-65
2022/09/20 05:05:23;;;;;;;2.25;2.05;;;11.70;99.90;;;;;;5110278;28;20760;-64
2022/09/20 05:07:54;;;;;;;3.75;2.97;;;11.80;99.90;;;;;;5101394;28;20633;-64
2022/09/20 05:10:37;;;;;;;6.55;2.88;;;11.70;99.90;;;;;;5113094;28;20191;-65
2022/09/20 05:13:16;;;;;;;2.92;2.42;;;11.70;99.90;;;;;;5108198;28;20196;-64
2022/09/20 05:15:42;;;;;;;3.58;2.25;;;11.50;99.90;;;;;;5098352;28;20184;-64
2022/09/20 05:18:38;;;;;;;5.45;2.78;;;11.40;99.90;;;;;;5112196;28;20179;-64
2022/09/20 05:21:26;;;;;;;2.38;1.88;;;11.50;99.90;;;;;;5105014;28;20184;-65
2022/09/20 05:23:51;;;;;;;4.97;2.90;;;11.50;99.90;;;;;;5112918;28;20172;-64
2022/09/20 05:26:29;;;;;;;6.53;2.58;;;11.50;99.90;;;;;;5088894;28;20184;-64
2022/09/20 05:29:16;;;;;;;5.55;2.92;;;11.60;99.90;;;;;;5086161;28;20208;-64
2022/09/20 05:32:12;;;;;;;4.38;2.50;;;11.60;99.90;;;;;;5101525;28;20200;-64
2022/09/20 05:34:49;;;;;;;4.28;2.30;;;11.50;99.90;;;;;;5111358;28;20180;-65
2022/09/20 05:37:55;;;;;;;5.55;2.72;;;11.50;99.90;;;;;;5105503;28;20167;-65
2022/09/20 05:40:42;;;;;;;3.38;2.33;;;11.50;99.90;;;;;;5103774;28;20180;-65
2022/09/20 05:43:11;;;;;;;2.50;2.30;;;11.50;99.90;;;;;;5106772;28;20181;-65
2022/09/20 05:45:43;;;;;;;3.85;2.72;;;11.40;99.90;;;;;;5109198;28;20173;-64
2022/09/20 05:48:31;;;;;;;9.52;3.47;;;11.50;99.90;;;;;;5082921;28;20229;-64
2022/09/20 05:51:30;;;;;;;6.40;2.90;;;11.50;99.90;;;;;;5098200;28;20176;-64
2022/09/20 05:54:20;;;;;;;6.95;2.72;;;11.50;99.90;;;;;;5011537;27;20590;-64
2022/09/20 05:56:54;;;;;;;2.75;2.55;;;11.50;99.90;;;;;;5084582;28;20276;-64
2022/09/20 05:59:31;;;;;;;3.60;2.65;;;11.50;99.90;;;;;;5103545;27;20566;-64
2022/09/20 06:02:27;;;;;;;2.28;2.08;;;11.40;99.90;;;;;;5086097;28;20543;-64
2022/09/20 06:05:02;;;;;;;4.38;3.40;;;11.40;99.90;;;;;;5112650;27;20179;-64
2022/09/20 06:07:44;;;;;;;12.38;4.47;;;11.40;99.90;;;;;;5106503;27;20527;-65
2022/09/20 06:10:14;;;;;;;3.35;2.78;;;11.50;99.90;;;;;;5103583;28;20191;-64
2022/09/20 06:13:08;;;;;;;4.85;3.85;;;11.50;99.90;;;;;;5094642;28;20196;-64
2022/09/20 06:16:05;;;;;;;2.83;2.58;;;11.50;99.90;;;;;;5089503;28;20615;-64
2022/09/20 06:18:42;;;;;;;4.63;2.72;;;11.60;99.90;;;;;;5080474;28;20226;-64
2022/09/20 06:21:29;;;;;;;5.20;3.03;;;11.70;99.90;;;;;;5086722;28;20164;-64
2022/09/20 06:24:01;;;;;;;3.67;2.92;;;11.80;99.90;;;;;;5102555;28;20263;-65
2022/09/20 06:26:32;;;;;;;3.42;2.47;;;12.00;99.90;;;;;;5105206;28;20173;-65
2022/09/20 06:29:05;;;;;;;6.25;2.95;;;12.10;99.90;;;;;;5115224;27;20183;-65
2022/09/20 06:31:30;;;;;;;7.20;6.00;;;12.20;99.90;;;;;;5114906;27;20198;-64
2022/09/20 06:34:01;;;;;;;3.53;3.00;;;12.50;99.90;;;;;;5113048;28;20196;-64
2022/09/20 06:42:10;;;;;;;4.88;3.50;;;12.40;99.90;;;;;;5120715;27;20241;-64
2022/09/20 06:44:42;;;;;;;10.55;3.70;;;12.50;99.90;;;;;;5104135;28;20180;-65
2022/09/20 06:47:11;;;;;;;4.93;4.05;;;12.50;99.90;;;;;;5088751;28;20189;-65
2022/09/20 06:49:40;;;;;;;3.70;2.85;;;12.50;99.90;;;;;;5094466;28;20184;-64
2022/09/20 06:52:09;;;;;;;4.80;2.53;;;12.60;99.90;;;;;;5096464;28;20211;-64
2022/09/20 06:54:36;;;;;;;3.25;2.58;;;12.70;99.90;;;;;;5096531;28;20187;-64
2022/09/20 06:57:05;;;;;;;6.82;3.33;;;12.70;99.90;;;;;;5096579;28;20532;-64
2022/09/20 06:59:30;;;;;;;3.95;2.80;;;12.80;99.90;;;;;;5112572;27;20211;-64
2022/09/20 07:01:56;;;;;;;5.65;3.72;;;12.90;99.90;;;;;;5079881;28;20212;-64
2022/09/20 07:04:23;;;;;;;4.88;2.83;;;13.00;99.90;;;;;;5093500;28;20187;-64
2022/09/20 07:06:49;;;;;;;6.15;3.15;;;13.20;99.90;;;;;;5100095;28;20180;-66
2022/09/20 07:09:16;;;;;;;3.97;3.03;;;13.30;99.90;;;;;;5087083;28;21568;-64
2022/09/20 07:11:41;;;;;;;4.78;2.38;;;13.50;99.90;;;;;;5113264;27;20287;-64
2022/09/20 07:14:07;;;;;;;3.60;3.17;;;14.40;99.90;;;;;;5101065;27;20264;-64
2022/09/20 07:16:35;;;;;;;5.55;3.08;;;16.10;99.90;;;;;;5078371;28;20185;-64
2022/09/20 07:19:02;;;;;;;3.03;2.28;;;17.90;99.90;;;;;;5076120;28;20216;-63
2022/09/20 07:21:27;;;;;;;3.28;2.67;;;19.40;99.90;;;;;;5106281;27;20198;-64
2022/09/20 07:23:53;;;;;;;7.07;2.63;;;20.80;99.90;;;;;;5096610;28;20177;-64
2022/09/20 07:26:25;;;;;;;8.45;2.13;;;21.80;99.90;;;;;;5092419;28;20176;-64
2022/09/20 07:28:51;;;;;;;7.90;2.90;;;22.50;99.90;;;;;;5090599;28;20183;-62
2022/09/20 07:31:18;;;;;;;2.88;2.00;;;23.40;99.90;;;;;;5102032;28;20176;-62
2022/09/20 07:33:44;;;;;;;3.08;2.00;;;24.00;99.90;;;;;;5118109;27;20270;-62
2022/09/20 07:36:13;;;;;;;3.03;1.70;;;24.70;99.90;;;;;;5068199;28;20278;-61
2022/09/20 07:38:40;;;;;;;8.20;3.55;;;25.20;99.90;;;;;;5078131;28;20194;-62
2022/09/20 07:41:07;;;;;;;5.90;2.45;;;25.60;99.90;;;;;;5111805;28;20176;-62
2022/09/20 07:43:33;;;;;;;6.25;1.90;;;26.30;99.90;;;;;;5113595;27;20533;-62
2022/09/20 07:45:58;;;;;;;3.30;2.60;;;26.60;99.90;;;;;;5082422;28;20184;-62
2022/09/20 07:48:33;;;;;;;3.95;2.60;;;26.70;99.90;;;;;;5107367;27;20190;-62
2022/09/20 07:51:07;;;;;;;7.57;2.80;;;27.20;99.90;;;;;;5098195;27;20175;-62
2022/09/20 07:53:33;;;;;;;6.63;2.55;;;27.00;99.90;;;;;;5094703;28;20210;-62
2022/09/20 07:56:12;;;;;;;11.07;2.63;;;26.20;99.90;;;;;;5076808;28;20641;-62
2022/09/20 07:58:39;;;;;;;6.45;2.50;;;24.80;99.90;;;;;;5112773;28;20171;-62
2022/09/20 08:01:07;;;;;;;6.75;3.60;;;23.50;99.90;;;;;;5090968;28;20208;-62
2022/09/20 08:03:33;;;;;;;6.00;2.70;;;22.60;99.90;;;;;;5084741;28;20263;-62
2022/09/20 08:06:05;;;;;;;7.47;3.53;;;21.70;99.90;;;;;;5096474;28;20191;-62
2022/09/20 08:08:32;;;;;;;2.97;2.47;;;21.00;99.90;;;;;;5106366;27;20199;-62
2022/09/20 08:11:07;;;;;;;3.92;3.03;;;20.40;99.90;;;;;;5113120;27;20640;-62
2022/09/20 08:13:37;;;;;;;3.25;2.35;;;19.70;99.90;;;;;;5112270;27;20217;-62
2022/09/20 08:16:09;;;;;;;4.57;2.92;;;19.10;99.90;;;;;;5074527;28;20637;-62
2022/09/20 08:18:36;;;;;;;4.03;2.40;;;18.60;99.90;;;;;;5111570;28;20259;-62
2022/09/20 08:21:07;;;;;;;4.85;2.60;;;18.20;99.90;;;;;;5089849;28;20326;-62
2022/09/20 08:23:37;;;;;;;4.38;3.00;;;18.00;99.90;;;;;;5100349;28;20179;-62
2022/09/20 08:26:04;;;;;;;9.15;3.75;;;18.00;99.90;;;;;;5071233;28;20263;-61
2022/09/20 08:28:31;;;;;;;3.25;2.92;;;18.00;99.90;;;;;;5093388;28;20228;-62
2022/09/20 08:31:05;;;;;;;5.78;2.25;;;18.00;99.90;;;;;;5097726;28;20199;-63
2022/09/20 08:33:31;;;;;;;7.05;2.78;;;18.00;99.90;;;;;;5092969;28;20583;-62
2022/09/20 08:35:57;;;;;;;2.53;2.33;;;18.10;99.90;;;;;;5111210;28;20628;-62
2022/09/20 08:38:26;;;;;;;8.38;3.13;;;18.00;99.90;;;;;;5078689;28;20184;-62
2022/09/20 08:40:58;;;;;;;6.88;2.53;;;18.10;99.90;;;;;;5095275;28;20205;-62
2022/09/20 08:43:28;;;;;;;3.85;2.72;;;18.10;99.90;;;;;;5095314;28;20178;-63
2022/09/20 08:46:01;;;;;;;4.57;2.47;;;18.10;99.90;;;;;;5108620;28;20238;-62
2022/09/20 08:48:33;;;;;;;4.35;3.72;;;18.10;99.90;;;;;;5118415;28;20207;-62
2022/09/20 08:51:01;;;;;;;3.83;2.88;;;18.00;99.90;;;;;;5089867;28;20620;-63
2022/09/20 08:53:28;;;;;;;8.20;3.22;;;18.20;99.90;;;;;;5112962;28;20210;-63
2022/09/20 08:55:56;;;;;;;16.42;3.88;;;18.30;99.90;;;;;;5093919;28;20191;-62
2022/09/20 08:58:22;;;;;;;5.15;2.97;;;18.60;99.90;;;;;;5107976;28;20176;-62
2022/09/20 09:00:48;;;;;;;4.20;1.92;;;18.50;99.90;;;;;;5095036;28;20192;-62
2022/09/20 09:03:16;;;;;;;3.45;2.72;;;18.30;99.90;;;;;;5102687;28;20647;-62
2022/09/20 09:05:52;;;;;;;2.65;2.45;;;18.30;99.90;;;;;;5101567;28;20184;-62
2022/09/20 09:08:20;;;;;;;4.45;2.60;;;18.20;99.90;;;;;;5103163;28;20177;-63
2022/09/20 09:11:11;;;;;;;4.38;2.92;;;18.10;99.90;;;;;;5091156;28;20196;-62
2022/09/20 09:13:47;;;;;;;4.03;2.40;;;18.00;99.90;;;;;;5087937;28;20180;-62
2022/09/20 09:16:17;;;;;;;4.28;2.80;;;18.00;99.90;;;;;;5112109;28;20224;-62
2022/09/20 09:18:44;;;;;;;5.97;2.65;;;18.10;99.90;;;;;;5096815;28;20255;-62
2022/09/20 09:21:25;;;;;;;6.70;3.10;;;18.30;99.90;;;;;;5117174;28;20204;-62
2022/09/20 09:24:08;;;;;;;6.72;2.88;;;18.60;99.90;;;;;;5114403;27;20571;-63
2022/09/20 09:26:36;;;;;;;9.05;2.72;;;18.60;99.90;;;;;;5113495;28;20598;-63
2022/09/20 09:29:21;;;;;;;4.88;2.13;;;18.40;99.90;;;;;;5096375;28;20516;-63
2022/09/20 09:31:50;;;;;;;3.15;1.55;;;18.70;99.90;;;;;;5116879;27;20208;-62
2022/09/20 09:34:33;;;;;;;6.45;1.80;;;19.00;99.90;;;;;;5096897;28;20171;-62
2022/09/20 09:36:59;;;;;;;4.35;2.35;;;19.30;99.90;;;;;;5109199;27;20179;-62
2022/09/20 09:39:28;;;;;;;7.15;2.05;;;19.70;99.90;;;;;;5113111;27;20676;-63
2022/09/20 09:41:54;;;;;;;3.83;1.92;;;20.10;99.90;;;;;;5107083;27;20519;-63
2022/09/20 09:44:26;;;;;;;7.07;2.38;;;20.40;99.90;;;;;;5068625;28;20184;-62
2022/09/20 09:46:53;;;;;;;5.75;2.10;;;20.20;99.90;;;;;;5116855;27;20180;-62
2022/09/20 09:49:33;;;;;;;4.47;1.67;;;20.40;99.90;;;;;;5103483;27;20198;-62
2022/09/20 09:52:24;;;;;;;4.90;1.52;;;20.40;99.90;;;;;;5113947;28;20656;-62
2022/09/20 09:54:58;;;;;;;2.10;1.48;;;20.50;99.90;;;;;;5081225;28;20324;-62
2022/09/20 09:57:58;;;;;;;2.72;1.65;;;20.30;99.90;;;;;;5096904;28;20272;-63
2022/09/20 10:00:25;;;;;;;4.13;1.48;;;20.20;99.90;;;;;;5077045;27;20184;-62
2022/09/20 10:03:25;;;;;;;4.18;1.73;;;19.70;99.90;;;;;;5086040;28;20180;-62
2022/09/20 10:06:05;;;;;;;3.30;1.63;;;19.40;99.90;;;;;;5101572;28;20168;-65
2022/09/20 10:08:49;;;;;;;2.47;2.03;;;19.40;99.90;;;;;;5104911;28;20175;-62
2022/09/20 10:11:36;;;;;;;13.18;3.65;;;18.90;99.90;;;;;;5095961;28;20195;-62
2022/09/20 10:14:10;;;;;;;2.78;2.00;;;18.60;99.90;;;;;;5063229;28;20199;-61
2022/09/20 10:16:40;;;;;;;4.25;1.70;;;18.70;99.90;;;;;;5108960;27;20176;-62
2022/09/20 10:19:53;;;;;;;2.10;1.92;;;19.00;99.90;;;;;;5118533;27;20191;-61
2022/09/20 10:22:20;;;;;;;7.28;2.05;;;19.40;99.90;;;;;;5103557;28;20184;-62
2022/09/20 10:25:10;;;;;;;2.28;1.70;;;19.50;99.90;;;;;;5114893;27;20183;-63
2022/09/20 10:27:52;;;;;;;3.55;1.95;;;19.20;99.90;;;;;;5095292;28;20206;-61
2022/09/20 10:30:27;;;;;;;4.50;1.48;;;19.00;99.90;;;;;;5116802;27;20176;-62
2022/09/20 10:33:08;;;;;;;2.97;1.65;;;19.20;99.90;;;;;;5101950;28;20191;-62
2022/09/20 10:36:07;;;;;;;1.48;1.38;;;19.50;99.90;;;;;;5105482;27;20207;-65
2022/09/20 10:38:40;;;;;;;3.67;2.60;;;19.70;99.90;;;;;;5112346;27;20539;-63
2022/09/20 10:44:48;;;;;;;3.00;2.50;;;20.00;99.90;;;;;;5114442;27;20268;-62
2022/09/20 10:47:21;;;;;;;4.75;1.90;;;20.00;99.90;;;;;;5083815;28;20286;-62
2022/09/20 10:50:20;;;;;;;2.08;1.52;;;20.20;99.90;;;;;;5114042;27;20176;-62
2022/09/20 10:53:19;;;;;;;7.05;2.03;;;20.10;99.90;;;;;;5111253;27;20199;-62
2022/09/20 10:55:59;;;;;;;5.65;1.77;;;19.60;99.90;;;;;;5110190;28;20192;-62
2022/09/20 10:58:42;;;;;;;3.22;1.48;;;19.40;99.90;;;;;;5111830;27;20189;-63
2022/09/20 11:01:41;;;;;;;5.10;2.90;;;19.40;99.90;;;;;;5105941;28;20186;-63
2022/09/20 11:04:36;;;;;;;3.63;3.00;;;19.30;99.90;;;;;;5108276;27;20181;-62
2022/09/20 11:07:07;;;;;;;3.20;2.90;;;19.20;99.90;;;;;;5103546;27;20177;-62
2022/09/20 11:09:39;;;;;;;3.08;2.78;;;19.00;99.90;;;;;;5108839;28;20551;-62
2022/09/20 11:12:31;;;;;;;3.70;3.40;;;18.80;99.90;;;;;;5114703;27;20200;-62
2022/09/20 11:15:03;;;;;;;4.35;3.88;;;18.60;99.90;;;;;;5094984;28;20539;-62
2022/09/20 11:17:41;;;;;;;5.45;4.40;;;18.50;99.90;;;;;;5105084;28;20578;-62
2022/09/20 11:20:23;;;;;;;4.57;2.80;;;18.20;99.90;;;;;;5113948;28;20713;-62
2022/09/20 11:22:55;;;;;;;4.05;3.22;;;18.00;99.90;;;;;;5088038;28;20271;-62
2022/09/20 11:26:00;;;;;;;7.13;5.15;;;17.70;99.90;;;;;;5108745;27;20247;-62
2022/09/20 11:28:38;;;;;;;6.25;4.03;;;17.60;99.90;;;;;;5109375;27;20192;-63
2022/09/20 11:31:13;;;;;;;4.90;4.40;;;17.50;99.90;;;;;;5104237;27;20172;-62
2022/09/20 11:33:45;;;;;;;7.75;4.63;;;17.30;99.90;;;;;;5108973;27;20195;-62
2022/09/20 11:36:41;;;;;;;8.27;4.25;;;17.30;99.90;;;;;;5094215;28;20240;-62
2022/09/20 11:39:45;;;;;;;7.78;3.97;;;17.20;99.90;;;;;;5098354;28;20199;-62
2022/09/20 11:42:16;;;;;;;4.15;3.03;;;17.40;99.90;;;;;;5114220;27;20187;-62
2022/09/20 11:44:42;;;;;;;5.13;3.03;;;17.60;99.90;;;;;;5110089;28;20180;-63
2022/09/20 11:47:11;;;;;;;9.23;3.47;;;17.70;99.90;;;;;;5059026;28;20188;-62
2022/09/20 11:49:45;;;;;;;6.07;2.83;;;17.90;99.90;;;;;;5112316;27;20606;-64
2022/09/20 11:52:23;;;;;;;3.35;2.30;;;18.20;99.90;;;;;;5095145;28;20252;-63
2022/09/20 11:55:06;;;;;;;1.45;1.38;;;18.50;99.90;;;;;;5097538;28;20210;-67
2022/09/20 11:57:33;;;;;;;1.35;1.30;;;18.50;99.90;;;;;;5111965;28;20259;-65
2022/09/20 12:00:02;;;;;;;1.65;1.38;;;18.50;99.90;;;;;;5113537;28;20233;-64
2022/09/20 12:02:50;;;;;;;6.13;0.95;;;18.60;99.90;;;;;;5117328;27;20176;-63
2022/09/20 12:05:38;;;;;;;1.02;1.02;;;18.80;99.90;;;;;;5110071;28;20183;-65
2022/09/20 12:08:16;;;;;;;0.50;0.50;;;19.20;99.90;;;;;;5093523;27;20181;-66
2022/09/20 12:10:52;;;;;;;0.98;0.70;;;19.60;99.90;;;;;;5094478;28;20204;-63
2022/09/20 12:13:26;;;;;;;1.42;0.70;;;19.80;99.90;;;;;;5089659;28;20586;-63
2022/09/20 12:16:11;;;;;;;2.53;0.65;;;19.70;99.90;;;;;;5099255;27;20200;-63
2022/09/20 12:18:52;;;;;;;1.33;0.73;;;19.90;99.90;;;;;;5077589;28;20187;-63
2022/09/20 12:21:20;;;;;;;0.70;0.70;;;20.20;99.90;;;;;;5099580;28;20659;-63
2022/09/20 12:23:51;;;;;;;3.20;0.80;;;20.60;99.90;;;;;;5092810;28;20210;-61
2022/09/20 12:26:20;;;;;;;2.50;1.00;;;20.70;99.90;;;;;;5104808;27;20185;-62
2022/09/20 12:28:49;;;;;;;1.48;0.68;;;20.80;99.90;;;;;;5109186;28;20218;-62
2022/09/20 12:31:21;;;;;;;2.15;1.30;;;20.90;99.90;;;;;;5112249;27;20182;-62
2022/09/20 12:33:59;;;;;;;0.70;0.70;;;20.90;99.90;;;;;;5106909;28;20205;-63
2022/09/20 12:36:34;;;;;;;2.88;1.30;;;20.90;99.90;;;;;;5106607;28;20180;-62
2022/09/20 12:39:05;;;;;;;1.08;1.08;;;20.90;99.90;;;;;;5112963;28;20182;-62
2022/09/20 12:41:50;;;;;;;1.73;1.13;;;20.90;99.90;;;;;;5082262;28;20175;-62
2022/09/20 12:44:33;;;;;;;1.90;1.08;;;20.70;99.90;;;;;;5100914;28;20187;-62
2022/09/20 12:47:11;;;;;;;1.77;1.60;;;20.70;99.90;;;;;;5111803;28;20183;-63
2022/09/20 12:56:06;;;;;;;8.00;1.63;;;20.80;99.90;;;;;;5045792;28;20192;-62
2022/09/20 12:58:50;;;;;;;2.22;1.20;;;20.50;99.90;;;;;;5089591;28;20191;-62
2022/09/20 13:01:16;;;;;;;2.53;1.23;;;20.30;99.90;;;;;;5096569;27;20184;-63
2022/09/20 13:03:48;;;;;;;4.60;1.40;;;20.10;99.90;;;;;;5105791;27;20194;-62
2022/09/20 13:06:15;;;;;;;2.25;1.60;;;20.00;99.90;;;;;;5111530;27;20164;-62
2022/09/20 13:08:47;;;;;;;1.70;1.42;;;20.20;99.90;;;;;;5093507;27;20534;-62
2022/09/20 13:11:33;;;;;;;10.32;2.38;;;20.20;99.90;;;;;;5078422;28;20258;-63
2022/09/20 13:14:31;;;;;;;5.95;1.38;;;20.40;99.90;;;;;;5102907;28;20189;-61
2022/09/20 13:17:23;;;;;;;3.90;1.75;;;20.50;99.90;;;;;;5084817;27;20187;-61
2022/09/20 13:19:51;;;;;;;1.25;0.95;;;20.60;99.90;;;;;;5087503;28;20172;-63
2022/09/20 13:22:19;;;;;;;1.23;0.95;;;20.50;99.90;;;;;;5105858;27;20188;-61
2022/09/20 13:24:53;;;;;;;3.35;0.98;;;20.50;99.90;;;;;;5111491;27;20247;-61
2022/09/20 13:27:24;;;;;;;4.18;1.52;;;20.60;99.90;;;;;;5095931;28;20176;-62
2022/09/20 13:29:52;;;;;;;2.75;0.85;;;20.70;99.90;;;;;;5109150;27;20184;-61
2022/09/20 13:32:27;;;;;;;1.90;0.80;;;20.70;99.90;;;;;;5095875;28;20204;-62
2022/09/20 13:35:11;;;;;;;4.28;0.90;;;20.50;99.90;;;;;;5113479;27;20620;-63
2022/09/20 13:38:19;;;;;;;3.97;1.00;;;20.60;99.90;;;;;;5098412;28;20629;-61
2022/09/20 13:40:48;;;;;;;6.43;0.70;;;20.50;99.90;;;;;;5095734;28;20274;-61
2022/09/20 13:43:36;;;;;;;4.38;1.58;;;20.50;99.90;;;;;;5108917;28;20256;-62
2022/09/20 13:46:15;;;;;;;2.95;0.65;;;20.40;99.90;;;;;;5112548;27;20180;-62
2022/09/20 13:48:42;;;;;;;3.05;0.70;;;20.40;99.90;;;;;;5075809;28;20173;-61
2022/09/20 13:51:24;;;;;;;2.85;1.17;;;20.00;99.90;;;;;;5110088;27;20190;-61
2022/09/20 13:53:50;;;;;;;1.58;1.05;;;19.80;99.90;;;;;;5104196;27;20191;-61
2022/09/20 13:56:27;;;;;;;1.05;0.95;;;19.60;99.90;;;;;;5108144;27;20184;-62